sensor_id;sensor_type;location;lat;lon;timestamp;P1;durP1;ratioP1;P2;durP2;ratioP2
27985;SDS011;15453;53.692;10.168;2022-08-19T00:01:45;11.30;;;8.30;;
27985;SDS011;15453;53.692;10.168;2022-08-19T00:04:12;14.32;;;8.68;;
27985;SDS011;15453;53.692;10.168;2022-08-19T00:06:41;13.30;;;8.90;;
27985;SDS011;15453;53.692;10.168;2022-08-19T00:09:08;14.95;;;8.60;;
27985;SDS011;15453;53.692;10.168;2022-08-19T00:11:36;12.40;;;8.63;;
27985;SDS011;15453;53.692;10.168;2022-08-19T00:14:02;11.73;;;8.77;;
27985;SDS011;15453;53.692;10.168;2022-08-19T00:16:29;12.18;;;8.80;;
27985;SDS011;15453;53.692;10.168;2022-08-19T00:18:55;15.02;;;10.07;;
27985;SDS011;15453;53.692;10.168;2022-08-19T00:21:20;14.52;;;9.48;;
27985;SDS011;15453;53.692;10.168;2022-08-19T00:23:46;12.18;;;9.20;;
27985;SDS011;15453;53.692;10.168;2022-08-19T00:26:12;16.40;;;11.02;;
27985;SDS011;15453;53.692;10.168;2022-08-19T00:28:38;14.02;;;9.38;;
27985;SDS011;15453;53.692;10.168;2022-08-19T00:31:04;14.13;;;9.57;;
27985;SDS011;15453;53.692;10.168;2022-08-19T00:33:31;18.83;;;11.20;;
27985;SDS011;15453;53.692;10.168;2022-08-19T00:35:58;17.55;;;11.95;;
27985;SDS011;15453;53.692;10.168;2022-08-19T00:38:23;16.58;;;10.95;;
27985;SDS011;15453;53.692;10.168;2022-08-19T00:40:49;18.90;;;12.35;;
27985;SDS011;15453;53.692;10.168;2022-08-19T00:43:18;17.23;;;11.63;;
27985;SDS011;15453;53.692;10.168;2022-08-19T00:45:45;17.77;;;12.15;;
27985;SDS011;15453;53.692;10.168;2022-08-19T00:48:10;15.68;;;11.70;;
27985;SDS011;15453;53.692;10.168;2022-08-19T00:50:36;20.38;;;13.18;;
27985;SDS011;15453;53.692;10.168;2022-08-19T00:53:05;18.83;;;13.00;;
27985;SDS011;15453;53.692;10.168;2022-08-19T00:55:31;19.08;;;13.00;;
27985;SDS011;15453;53.692;10.168;2022-08-19T00:58:00;18.05;;;13.00;;
27985;SDS011;15453;53.692;10.168;2022-08-19T01:00:30;19.08;;;14.52;;
27985;SDS011;15453;53.692;10.168;2022-08-19T01:02:56;20.15;;;14.35;;
27985;SDS011;15453;53.692;10.168;2022-08-19T01:05:23;19.83;;;14.15;;
27985;SDS011;15453;53.692;10.168;2022-08-19T01:07:52;21.92;;;14.73;;
27985;SDS011;15453;53.692;10.168;2022-08-19T01:10:20;20.05;;;13.65;;
27985;SDS011;15453;53.692;10.168;2022-08-19T01:12:48;22.27;;;14.27;;
27985;SDS011;15453;53.692;10.168;2022-08-19T01:15:17;19.55;;;13.25;;
27985;SDS011;15453;53.692;10.168;2022-08-19T01:17:44;22.27;;;14.20;;
27985;SDS011;15453;53.692;10.168;2022-08-19T01:20:15;18.88;;;14.35;;
27985;SDS011;15453;53.692;10.168;2022-08-19T01:22:45;20.40;;;13.68;;
27985;SDS011;15453;53.692;10.168;2022-08-19T01:25:17;22.80;;;15.48;;
27985;SDS011;15453;53.692;10.168;2022-08-19T01:27:47;18.83;;;14.18;;
27985;SDS011;15453;53.692;10.168;2022-08-19T01:30:16;20.50;;;14.30;;
27985;SDS011;15453;53.692;10.168;2022-08-19T01:32:45;20.88;;;13.52;;
27985;SDS011;15453;53.692;10.168;2022-08-19T01:35:11;24.45;;;16.13;;
27985;SDS011;15453;53.692;10.168;2022-08-19T01:37:44;18.58;;;13.60;;
27985;SDS011;15453;53.692;10.168;2022-08-19T01:40:14;17.40;;;12.73;;
27985;SDS011;15453;53.692;10.168;2022-08-19T01:42:39;19.48;;;13.27;;
27985;SDS011;15453;53.692;10.168;2022-08-19T01:45:05;14.30;;;11.90;;
27985;SDS011;15453;53.692;10.168;2022-08-19T01:47:32;17.92;;;13.25;;
27985;SDS011;15453;53.692;10.168;2022-08-19T01:49:59;16.73;;;12.27;;
27985;SDS011;15453;53.692;10.168;2022-08-19T01:52:25;16.42;;;12.82;;
27985;SDS011;15453;53.692;10.168;2022-08-19T01:54:50;19.50;;;13.27;;
27985;SDS011;15453;53.692;10.168;2022-08-19T01:57:15;21.83;;;14.32;;
27985;SDS011;15453;53.692;10.168;2022-08-19T01:59:41;19.63;;;13.93;;
27985;SDS011;15453;53.692;10.168;2022-08-19T02:02:09;18.90;;;13.65;;
27985;SDS011;15453;53.692;10.168;2022-08-19T02:04:34;18.77;;;13.40;;
27985;SDS011;15453;53.692;10.168;2022-08-19T02:07:00;19.20;;;13.05;;
27985;SDS011;15453;53.692;10.168;2022-08-19T02:09:25;19.98;;;13.27;;
27985;SDS011;15453;53.692;10.168;2022-08-19T02:11:51;21.33;;;13.60;;
27985;SDS011;15453;53.692;10.168;2022-08-19T02:14:16;21.75;;;14.73;;
27985;SDS011;15453;53.692;10.168;2022-08-19T02:16:42;20.73;;;13.20;;
27985;SDS011;15453;53.692;10.168;2022-08-19T02:19:07;23.95;;;13.93;;
27985;SDS011;15453;53.692;10.168;2022-08-19T02:21:32;23.60;;;14.02;;
27985;SDS011;15453;53.692;10.168;2022-08-19T02:23:58;30.55;;;15.05;;
27985;SDS011;15453;53.692;10.168;2022-08-19T02:26:23;25.85;;;14.57;;
27985;SDS011;15453;53.692;10.168;2022-08-19T02:28:51;18.55;;;13.07;;
27985;SDS011;15453;53.692;10.168;2022-08-19T02:31:18;19.73;;;12.77;;
27985;SDS011;15453;53.692;10.168;2022-08-19T02:33:45;21.07;;;12.57;;
27985;SDS011;15453;53.692;10.168;2022-08-19T02:36:12;24.33;;;14.68;;
27985;SDS011;15453;53.692;10.168;2022-08-19T02:38:39;22.83;;;13.80;;
27985;SDS011;15453;53.692;10.168;2022-08-19T02:41:07;19.35;;;12.27;;
27985;SDS011;15453;53.692;10.168;2022-08-19T02:43:38;22.20;;;13.00;;
27985;SDS011;15453;53.692;10.168;2022-08-19T02:46:21;22.33;;;13.10;;
27985;SDS011;15453;53.692;10.168;2022-08-19T02:48:49;23.75;;;13.25;;
27985;SDS011;15453;53.692;10.168;2022-08-19T02:51:20;26.02;;;12.93;;
27985;SDS011;15453;53.692;10.168;2022-08-19T02:53:48;26.60;;;13.55;;
27985;SDS011;15453;53.692;10.168;2022-08-19T02:56:14;29.05;;;14.40;;
27985;SDS011;15453;53.692;10.168;2022-08-19T02:58:40;23.45;;;13.27;;
27985;SDS011;15453;53.692;10.168;2022-08-19T03:01:06;29.50;;;14.95;;
27985;SDS011;15453;53.692;10.168;2022-08-19T03:03:32;26.75;;;13.50;;
27985;SDS011;15453;53.692;10.168;2022-08-19T03:06:08;26.00;;;12.60;;
27985;SDS011;15453;53.692;10.168;2022-08-19T03:08:35;25.50;;;12.52;;
27985;SDS011;15453;53.692;10.168;2022-08-19T03:11:02;25.70;;;13.05;;
27985;SDS011;15453;53.692;10.168;2022-08-19T03:13:27;23.30;;;12.30;;
27985;SDS011;15453;53.692;10.168;2022-08-19T03:15:53;25.20;;;12.52;;
27985;SDS011;15453;53.692;10.168;2022-08-19T03:18:18;21.27;;;12.95;;
27985;SDS011;15453;53.692;10.168;2022-08-19T03:20:44;21.63;;;13.57;;
27985;SDS011;15453;53.692;10.168;2022-08-19T03:23:12;22.33;;;12.55;;
27985;SDS011;15453;53.692;10.168;2022-08-19T03:25:40;19.75;;;11.80;;
27985;SDS011;15453;53.692;10.168;2022-08-19T03:28:08;19.02;;;11.20;;
27985;SDS011;15453;53.692;10.168;2022-08-19T03:30:34;23.17;;;12.82;;
27985;SDS011;15453;53.692;10.168;2022-08-19T03:32:59;18.52;;;10.98;;
27985;SDS011;15453;53.692;10.168;2022-08-19T03:35:24;18.48;;;10.27;;
27985;SDS011;15453;53.692;10.168;2022-08-19T03:37:49;18.60;;;10.27;;
27985;SDS011;15453;53.692;10.168;2022-08-19T03:40:15;15.68;;;10.40;;
27985;SDS011;15453;53.692;10.168;2022-08-19T03:42:41;18.80;;;11.48;;
27985;SDS011;15453;53.692;10.168;2022-08-19T03:45:07;16.55;;;10.55;;
27985;SDS011;15453;53.692;10.168;2022-08-19T03:47:32;16.70;;;10.50;;
27985;SDS011;15453;53.692;10.168;2022-08-19T03:49:58;15.95;;;10.07;;
27985;SDS011;15453;53.692;10.168;2022-08-19T03:52:23;15.27;;;10.30;;
27985;SDS011;15453;53.692;10.168;2022-08-19T03:54:48;19.67;;;12.65;;
27985;SDS011;15453;53.692;10.168;2022-08-19T03:57:13;16.83;;;11.80;;
27985;SDS011;15453;53.692;10.168;2022-08-19T03:59:39;17.27;;;10.98;;
27985;SDS011;15453;53.692;10.168;2022-08-19T04:02:07;19.83;;;12.05;;
27985;SDS011;15453;53.692;10.168;2022-08-19T04:04:34;16.48;;;11.00;;
27985;SDS011;15453;53.692;10.168;2022-08-19T04:07:01;16.60;;;10.98;;
27985;SDS011;15453;53.692;10.168;2022-08-19T04:09:26;18.33;;;11.07;;
27985;SDS011;15453;53.692;10.168;2022-08-19T04:11:53;19.27;;;10.70;;
27985;SDS011;15453;53.692;10.168;2022-08-19T04:14:21;18.15;;;11.40;;
27985;SDS011;15453;53.692;10.168;2022-08-19T04:16:49;16.87;;;11.00;;
27985;SDS011;15453;53.692;10.168;2022-08-19T04:19:15;19.75;;;11.88;;
27985;SDS011;15453;53.692;10.168;2022-08-19T04:21:46;19.20;;;12.05;;
27985;SDS011;15453;53.692;10.168;2022-08-19T04:24:13;21.92;;;11.57;;
27985;SDS011;15453;53.692;10.168;2022-08-19T04:26:39;19.08;;;11.25;;
27985;SDS011;15453;53.692;10.168;2022-08-19T04:29:06;19.95;;;11.93;;
27985;SDS011;15453;53.692;10.168;2022-08-19T04:31:34;20.88;;;11.77;;
27985;SDS011;15453;53.692;10.168;2022-08-19T04:34:01;18.73;;;11.27;;
27985;SDS011;15453;53.692;10.168;2022-08-19T04:36:32;21.05;;;11.63;;
27985;SDS011;15453;53.692;10.168;2022-08-19T04:39:01;21.98;;;12.60;;
27985;SDS011;15453;53.692;10.168;2022-08-19T04:41:28;16.90;;;11.48;;
27985;SDS011;15453;53.692;10.168;2022-08-19T04:44:13;21.85;;;12.85;;
27985;SDS011;15453;53.692;10.168;2022-08-19T04:46:42;19.98;;;11.50;;
27985;SDS011;15453;53.692;10.168;2022-08-19T04:49:08;19.73;;;11.23;;
27985;SDS011;15453;53.692;10.168;2022-08-19T04:51:33;20.45;;;11.73;;
27985;SDS011;15453;53.692;10.168;2022-08-19T04:54:00;21.10;;;12.32;;
27985;SDS011;15453;53.692;10.168;2022-08-19T04:56:26;22.85;;;12.30;;
27985;SDS011;15453;53.692;10.168;2022-08-19T04:58:53;21.13;;;12.07;;
27985;SDS011;15453;53.692;10.168;2022-08-19T05:01:21;31.25;;;14.52;;
27985;SDS011;15453;53.692;10.168;2022-08-19T05:03:48;22.13;;;12.25;;
27985;SDS011;15453;53.692;10.168;2022-08-19T05:06:14;23.25;;;12.30;;
27985;SDS011;15453;53.692;10.168;2022-08-19T05:08:42;25.75;;;13.38;;
27985;SDS011;15453;53.692;10.168;2022-08-19T05:11:09;23.05;;;12.82;;
27985;SDS011;15453;53.692;10.168;2022-08-19T05:13:43;25.77;;;12.10;;
27985;SDS011;15453;53.692;10.168;2022-08-19T05:16:10;22.25;;;12.20;;
27985;SDS011;15453;53.692;10.168;2022-08-19T05:18:36;19.98;;;11.73;;
27985;SDS011;15453;53.692;10.168;2022-08-19T05:21:20;21.98;;;11.55;;
27985;SDS011;15453;53.692;10.168;2022-08-19T05:24:05;22.73;;;12.05;;
27985;SDS011;15453;53.692;10.168;2022-08-19T05:26:37;19.35;;;12.00;;
27985;SDS011;15453;53.692;10.168;2022-08-19T05:29:04;22.52;;;12.30;;
27985;SDS011;15453;53.692;10.168;2022-08-19T05:31:30;20.75;;;11.18;;
27985;SDS011;15453;53.692;10.168;2022-08-19T05:33:56;25.23;;;11.75;;
27985;SDS011;15453;53.692;10.168;2022-08-19T05:36:23;19.88;;;11.40;;
27985;SDS011;15453;53.692;10.168;2022-08-19T05:38:52;23.70;;;12.13;;
27985;SDS011;15453;53.692;10.168;2022-08-19T05:41:18;21.90;;;12.98;;
27985;SDS011;15453;53.692;10.168;2022-08-19T05:43:44;17.88;;;11.05;;
27985;SDS011;15453;53.692;10.168;2022-08-19T05:46:15;21.50;;;11.85;;
27985;SDS011;15453;53.692;10.168;2022-08-19T05:48:43;26.42;;;13.90;;
27985;SDS011;15453;53.692;10.168;2022-08-19T05:51:08;22.17;;;12.63;;
27985;SDS011;15453;53.692;10.168;2022-08-19T05:53:34;23.33;;;12.43;;
27985;SDS011;15453;53.692;10.168;2022-08-19T05:56:03;25.75;;;13.57;;
27985;SDS011;15453;53.692;10.168;2022-08-19T05:58:30;26.83;;;13.85;;
27985;SDS011;15453;53.692;10.168;2022-08-19T06:00:56;23.90;;;13.82;;
27985;SDS011;15453;53.692;10.168;2022-08-19T06:03:21;24.98;;;13.75;;
27985;SDS011;15453;53.692;10.168;2022-08-19T06:05:47;18.27;;;11.43;;
27985;SDS011;15453;53.692;10.168;2022-08-19T06:08:12;24.15;;;13.52;;
27985;SDS011;15453;53.692;10.168;2022-08-19T06:10:37;30.75;;;18.23;;
27985;SDS011;15453;53.692;10.168;2022-08-19T06:13:02;43.88;;;25.73;;
27985;SDS011;15453;53.692;10.168;2022-08-19T06:15:27;42.58;;;22.23;;
27985;SDS011;15453;53.692;10.168;2022-08-19T06:17:53;39.55;;;21.50;;
27985;SDS011;15453;53.692;10.168;2022-08-19T06:20:18;35.05;;;19.25;;
27985;SDS011;15453;53.692;10.168;2022-08-19T06:22:45;33.95;;;19.50;;
27985;SDS011;15453;53.692;10.168;2022-08-19T06:25:14;39.00;;;20.23;;
27985;SDS011;15453;53.692;10.168;2022-08-19T06:27:39;32.92;;;19.23;;
27985;SDS011;15453;53.692;10.168;2022-08-19T06:30:06;34.95;;;19.30;;
27985;SDS011;15453;53.692;10.168;2022-08-19T06:32:31;30.88;;;17.63;;
27985;SDS011;15453;53.692;10.168;2022-08-19T06:34:57;30.75;;;17.48;;
27985;SDS011;15453;53.692;10.168;2022-08-19T06:37:22;32.33;;;17.10;;
27985;SDS011;15453;53.692;10.168;2022-08-19T06:39:48;29.48;;;16.90;;
27985;SDS011;15453;53.692;10.168;2022-08-19T06:42:14;30.58;;;16.33;;
27985;SDS011;15453;53.692;10.168;2022-08-19T06:44:41;29.80;;;16.60;;
27985;SDS011;15453;53.692;10.168;2022-08-19T06:47:08;33.10;;;16.00;;
27985;SDS011;15453;53.692;10.168;2022-08-19T06:49:36;26.45;;;15.05;;
27985;SDS011;15453;53.692;10.168;2022-08-19T06:52:02;28.00;;;16.08;;
27985;SDS011;15453;53.692;10.168;2022-08-19T06:54:28;30.50;;;15.27;;
27985;SDS011;15453;53.692;10.168;2022-08-19T06:56:54;26.98;;;15.07;;
27985;SDS011;15453;53.692;10.168;2022-08-19T06:59:21;29.27;;;15.98;;
27985;SDS011;15453;53.692;10.168;2022-08-19T07:01:52;28.98;;;15.13;;
27985;SDS011;15453;53.692;10.168;2022-08-19T07:04:20;29.15;;;15.88;;
27985;SDS011;15453;53.692;10.168;2022-08-19T07:06:47;27.15;;;14.57;;
27985;SDS011;15453;53.692;10.168;2022-08-19T07:09:14;25.77;;;14.63;;
27985;SDS011;15453;53.692;10.168;2022-08-19T07:11:44;24.58;;;15.75;;
27985;SDS011;15453;53.692;10.168;2022-08-19T07:14:11;25.27;;;14.65;;
27985;SDS011;15453;53.692;10.168;2022-08-19T07:16:37;31.45;;;16.00;;
27985;SDS011;15453;53.692;10.168;2022-08-19T07:19:02;27.40;;;14.82;;
27985;SDS011;15453;53.692;10.168;2022-08-19T07:21:28;25.05;;;14.07;;
27985;SDS011;15453;53.692;10.168;2022-08-19T07:23:54;30.98;;;15.50;;
27985;SDS011;15453;53.692;10.168;2022-08-19T07:26:22;30.58;;;15.23;;
27985;SDS011;15453;53.692;10.168;2022-08-19T07:31:17;25.77;;;13.40;;
27985;SDS011;15453;53.692;10.168;2022-08-19T07:33:45;25.92;;;14.25;;
27985;SDS011;15453;53.692;10.168;2022-08-19T07:36:12;20.88;;;13.07;;
27985;SDS011;15453;53.692;10.168;2022-08-19T07:38:40;26.92;;;13.25;;
27985;SDS011;15453;53.692;10.168;2022-08-19T07:41:08;26.17;;;14.57;;
27985;SDS011;15453;53.692;10.168;2022-08-19T07:43:36;25.90;;;13.75;;
27985;SDS011;15453;53.692;10.168;2022-08-19T07:46:01;25.10;;;13.32;;
27985;SDS011;15453;53.692;10.168;2022-08-19T07:48:27;24.88;;;13.45;;
27985;SDS011;15453;53.692;10.168;2022-08-19T07:50:54;25.15;;;13.48;;
27985;SDS011;15453;53.692;10.168;2022-08-19T07:53:21;24.52;;;14.07;;
27985;SDS011;15453;53.692;10.168;2022-08-19T07:55:47;23.95;;;13.40;;
27985;SDS011;15453;53.692;10.168;2022-08-19T07:58:14;26.45;;;13.88;;
27985;SDS011;15453;53.692;10.168;2022-08-19T08:00:41;25.65;;;13.73;;
27985;SDS011;15453;53.692;10.168;2022-08-19T08:03:07;27.75;;;14.02;;
27985;SDS011;15453;53.692;10.168;2022-08-19T08:05:33;28.13;;;15.00;;
27985;SDS011;15453;53.692;10.168;2022-08-19T08:08:18;24.52;;;14.25;;
27985;SDS011;15453;53.692;10.168;2022-08-19T08:11:01;28.88;;;16.65;;
27985;SDS011;15453;53.692;10.168;2022-08-19T08:13:28;29.73;;;15.88;;
27985;SDS011;15453;53.692;10.168;2022-08-19T08:15:53;24.17;;;13.70;;
27985;SDS011;15453;53.692;10.168;2022-08-19T08:18:18;25.92;;;13.38;;
27985;SDS011;15453;53.692;10.168;2022-08-19T08:20:45;29.00;;;13.35;;
27985;SDS011;15453;53.692;10.168;2022-08-19T08:23:10;27.05;;;14.18;;
27985;SDS011;15453;53.692;10.168;2022-08-19T08:25:49;31.73;;;14.93;;
27985;SDS011;15453;53.692;10.168;2022-08-19T08:28:15;27.10;;;15.07;;
27985;SDS011;15453;53.692;10.168;2022-08-19T08:30:41;26.95;;;14.30;;
27985;SDS011;15453;53.692;10.168;2022-08-19T08:33:08;26.70;;;13.35;;
27985;SDS011;15453;53.692;10.168;2022-08-19T08:35:35;28.75;;;13.30;;
27985;SDS011;15453;53.692;10.168;2022-08-19T08:38:00;28.65;;;15.30;;
27985;SDS011;15453;53.692;10.168;2022-08-19T08:40:50;27.02;;;13.73;;
27985;SDS011;15453;53.692;10.168;2022-08-19T08:43:33;26.13;;;13.98;;
27985;SDS011;15453;53.692;10.168;2022-08-19T08:46:08;26.98;;;14.30;;
27985;SDS011;15453;53.692;10.168;2022-08-19T08:48:46;25.95;;;14.98;;
27985;SDS011;15453;53.692;10.168;2022-08-19T08:51:36;28.88;;;15.05;;
27985;SDS011;15453;53.692;10.168;2022-08-19T08:54:06;26.55;;;14.57;;
27985;SDS011;15453;53.692;10.168;2022-08-19T08:56:33;28.00;;;14.80;;
27985;SDS011;15453;53.692;10.168;2022-08-19T08:59:03;26.75;;;15.60;;
27985;SDS011;15453;53.692;10.168;2022-08-19T09:01:33;30.25;;;15.23;;
27985;SDS011;15453;53.692;10.168;2022-08-19T09:03:58;25.83;;;16.13;;
27985;SDS011;15453;53.692;10.168;2022-08-19T09:09:32;25.90;;;14.95;;
27985;SDS011;15453;53.692;10.168;2022-08-19T09:12:03;27.75;;;16.00;;
27985;SDS011;15453;53.692;10.168;2022-08-19T09:17:35;28.55;;;15.90;;
27985;SDS011;15453;53.692;10.168;2022-08-19T09:20:03;25.50;;;13.93;;
27985;SDS011;15453;53.692;10.168;2022-08-19T09:22:35;26.42;;;15.88;;
27985;SDS011;15453;53.692;10.168;2022-08-19T09:25:02;27.48;;;14.77;;
27985;SDS011;15453;53.692;10.168;2022-08-19T09:27:28;23.05;;;14.00;;
27985;SDS011;15453;53.692;10.168;2022-08-19T09:29:54;24.40;;;15.25;;
27985;SDS011;15453;53.692;10.168;2022-08-19T09:32:20;26.60;;;15.88;;
27985;SDS011;15453;53.692;10.168;2022-08-19T09:34:46;22.85;;;14.25;;
27985;SDS011;15453;53.692;10.168;2022-08-19T09:37:12;23.80;;;14.68;;
27985;SDS011;15453;53.692;10.168;2022-08-19T09:39:38;22.60;;;14.80;;
27985;SDS011;15453;53.692;10.168;2022-08-19T09:42:05;24.42;;;14.50;;
27985;SDS011;15453;53.692;10.168;2022-08-19T09:44:36;24.30;;;13.20;;
27985;SDS011;15453;53.692;10.168;2022-08-19T09:47:01;23.20;;;14.88;;
27985;SDS011;15453;53.692;10.168;2022-08-19T09:49:28;21.27;;;13.93;;
27985;SDS011;15453;53.692;10.168;2022-08-19T09:51:53;19.38;;;13.07;;
27985;SDS011;15453;53.692;10.168;2022-08-19T09:54:21;22.83;;;13.73;;
27985;SDS011;15453;53.692;10.168;2022-08-19T09:56:46;23.70;;;15.02;;
27985;SDS011;15453;53.692;10.168;2022-08-19T09:59:11;27.58;;;15.43;;
27985;SDS011;15453;53.692;10.168;2022-08-19T10:01:37;24.65;;;15.73;;
27985;SDS011;15453;53.692;10.168;2022-08-19T10:04:03;20.92;;;13.55;;
27985;SDS011;15453;53.692;10.168;2022-08-19T10:06:33;21.95;;;15.20;;
27985;SDS011;15453;53.692;10.168;2022-08-19T10:08:59;24.05;;;15.07;;
27985;SDS011;15453;53.692;10.168;2022-08-19T10:11:24;24.85;;;14.43;;
27985;SDS011;15453;53.692;10.168;2022-08-19T10:13:51;20.00;;;13.68;;
27985;SDS011;15453;53.692;10.168;2022-08-19T10:16:19;22.65;;;13.88;;
27985;SDS011;15453;53.692;10.168;2022-08-19T10:18:48;23.83;;;15.63;;
27985;SDS011;15453;53.692;10.168;2022-08-19T10:21:15;20.73;;;14.20;;
27985;SDS011;15453;53.692;10.168;2022-08-19T10:23:43;20.88;;;14.32;;
27985;SDS011;15453;53.692;10.168;2022-08-19T10:26:11;19.95;;;14.00;;
27985;SDS011;15453;53.692;10.168;2022-08-19T10:28:41;21.38;;;15.10;;
27985;SDS011;15453;53.692;10.168;2022-08-19T10:31:11;22.27;;;14.23;;
27985;SDS011;15453;53.692;10.168;2022-08-19T10:33:41;20.67;;;13.40;;
27985;SDS011;15453;53.692;10.168;2022-08-19T10:36:08;19.90;;;13.52;;
27985;SDS011;15453;53.692;10.168;2022-08-19T10:38:40;18.10;;;13.30;;
27985;SDS011;15453;53.692;10.168;2022-08-19T10:41:10;25.52;;;16.27;;
27985;SDS011;15453;53.692;10.168;2022-08-19T10:46:03;21.48;;;14.85;;
27985;SDS011;15453;53.692;10.168;2022-08-19T10:48:30;21.90;;;15.27;;
27985;SDS011;15453;53.692;10.168;2022-08-19T10:50:56;21.88;;;15.55;;
27985;SDS011;15453;53.692;10.168;2022-08-19T10:53:41;19.35;;;13.90;;
27985;SDS011;15453;53.692;10.168;2022-08-19T10:56:06;19.67;;;14.10;;
27985;SDS011;15453;53.692;10.168;2022-08-19T10:58:50;18.08;;;12.63;;
27985;SDS011;15453;53.692;10.168;2022-08-19T11:01:15;21.70;;;15.15;;
27985;SDS011;15453;53.692;10.168;2022-08-19T11:03:40;19.20;;;14.70;;
27985;SDS011;15453;53.692;10.168;2022-08-19T11:06:06;22.60;;;15.67;;
27985;SDS011;15453;53.692;10.168;2022-08-19T11:08:33;20.00;;;14.10;;
27985;SDS011;15453;53.692;10.168;2022-08-19T11:11:02;18.17;;;13.43;;
27985;SDS011;15453;53.692;10.168;2022-08-19T11:13:29;19.23;;;13.25;;
27985;SDS011;15453;53.692;10.168;2022-08-19T11:16:08;16.00;;;11.73;;
27985;SDS011;15453;53.692;10.168;2022-08-19T11:18:40;17.05;;;13.73;;
27985;SDS011;15453;53.692;10.168;2022-08-19T11:21:12;23.00;;;14.18;;
27985;SDS011;15453;53.692;10.168;2022-08-19T11:23:41;19.85;;;13.23;;
27985;SDS011;15453;53.692;10.168;2022-08-19T11:26:08;18.17;;;12.50;;
27985;SDS011;15453;53.692;10.168;2022-08-19T11:28:33;18.98;;;13.98;;
27985;SDS011;15453;53.692;10.168;2022-08-19T11:30:59;18.50;;;14.05;;
27985;SDS011;15453;53.692;10.168;2022-08-19T11:33:24;19.80;;;13.88;;
27985;SDS011;15453;53.692;10.168;2022-08-19T11:35:51;19.27;;;12.68;;
27985;SDS011;15453;53.692;10.168;2022-08-19T11:38:16;17.42;;;13.27;;
27985;SDS011;15453;53.692;10.168;2022-08-19T11:40:43;17.77;;;13.27;;
27985;SDS011;15453;53.692;10.168;2022-08-19T11:43:09;23.00;;;13.50;;
27985;SDS011;15453;53.692;10.168;2022-08-19T11:45:34;19.55;;;13.40;;
27985;SDS011;15453;53.692;10.168;2022-08-19T11:47:59;19.40;;;13.50;;
27985;SDS011;15453;53.692;10.168;2022-08-19T11:50:25;17.70;;;12.68;;
27985;SDS011;15453;53.692;10.168;2022-08-19T11:52:53;15.70;;;12.95;;
27985;SDS011;15453;53.692;10.168;2022-08-19T11:55:19;20.67;;;13.73;;
27985;SDS011;15453;53.692;10.168;2022-08-19T11:57:45;18.65;;;13.80;;
27985;SDS011;15453;53.692;10.168;2022-08-19T12:00:11;20.30;;;12.65;;
27985;SDS011;15453;53.692;10.168;2022-08-19T12:02:38;18.08;;;13.77;;
27985;SDS011;15453;53.692;10.168;2022-08-19T12:05:04;16.58;;;13.50;;
27985;SDS011;15453;53.692;10.168;2022-08-19T12:07:30;17.45;;;13.68;;
27985;SDS011;15453;53.692;10.168;2022-08-19T12:09:58;17.30;;;13.43;;
27985;SDS011;15453;53.692;10.168;2022-08-19T12:12:24;16.70;;;11.90;;
27985;SDS011;15453;53.692;10.168;2022-08-19T12:14:49;19.00;;;14.40;;
27985;SDS011;15453;53.692;10.168;2022-08-19T12:17:21;18.63;;;14.50;;
27985;SDS011;15453;53.692;10.168;2022-08-19T12:19:50;18.50;;;14.48;;
27985;SDS011;15453;53.692;10.168;2022-08-19T12:22:16;18.55;;;12.88;;
27985;SDS011;15453;53.692;10.168;2022-08-19T12:24:41;18.80;;;14.43;;
27985;SDS011;15453;53.692;10.168;2022-08-19T12:27:07;20.30;;;14.07;;
27985;SDS011;15453;53.692;10.168;2022-08-19T12:29:32;17.83;;;13.70;;
27985;SDS011;15453;53.692;10.168;2022-08-19T12:31:58;16.60;;;13.32;;
27985;SDS011;15453;53.692;10.168;2022-08-19T12:34:28;20.75;;;15.15;;
27985;SDS011;15453;53.692;10.168;2022-08-19T12:36:57;19.80;;;13.77;;
27985;SDS011;15453;53.692;10.168;2022-08-19T12:39:24;16.77;;;14.10;;
27985;SDS011;15453;53.692;10.168;2022-08-19T12:41:49;18.05;;;13.20;;
27985;SDS011;15453;53.692;10.168;2022-08-19T12:44:15;17.80;;;12.63;;
27985;SDS011;15453;53.692;10.168;2022-08-19T12:46:40;16.17;;;12.25;;
27985;SDS011;15453;53.692;10.168;2022-08-19T12:49:06;15.00;;;12.23;;
27985;SDS011;15453;53.692;10.168;2022-08-19T12:51:31;18.38;;;13.13;;
27985;SDS011;15453;53.692;10.168;2022-08-19T12:53:56;16.13;;;12.98;;
27985;SDS011;15453;53.692;10.168;2022-08-19T12:56:22;18.73;;;14.25;;
27985;SDS011;15453;53.692;10.168;2022-08-19T12:58:47;18.83;;;12.20;;
27985;SDS011;15453;53.692;10.168;2022-08-19T13:01:14;15.27;;;11.05;;
27985;SDS011;15453;53.692;10.168;2022-08-19T13:03:41;15.73;;;10.30;;
27985;SDS011;15453;53.692;10.168;2022-08-19T13:06:08;15.80;;;12.18;;
27985;SDS011;15453;53.692;10.168;2022-08-19T13:08:34;15.32;;;12.10;;
27985;SDS011;15453;53.692;10.168;2022-08-19T13:11:06;15.73;;;11.10;;
27985;SDS011;15453;53.692;10.168;2022-08-19T13:13:36;16.20;;;11.15;;
27985;SDS011;15453;53.692;10.168;2022-08-19T13:16:05;13.75;;;10.85;;
27985;SDS011;15453;53.692;10.168;2022-08-19T13:18:31;18.52;;;12.75;;
27985;SDS011;15453;53.692;10.168;2022-08-19T13:20:56;16.13;;;11.23;;
27985;SDS011;15453;53.692;10.168;2022-08-19T13:23:22;15.77;;;11.45;;
27985;SDS011;15453;53.692;10.168;2022-08-19T13:26:00;18.15;;;12.57;;
27985;SDS011;15453;53.692;10.168;2022-08-19T13:28:27;19.27;;;14.10;;
27985;SDS011;15453;53.692;10.168;2022-08-19T13:31:20;16.08;;;12.10;;
27985;SDS011;15453;53.692;10.168;2022-08-19T13:34:05;15.90;;;11.98;;
27985;SDS011;15453;53.692;10.168;2022-08-19T13:36:31;17.17;;;12.05;;
27985;SDS011;15453;53.692;10.168;2022-08-19T13:39:00;16.17;;;11.75;;
27985;SDS011;15453;53.692;10.168;2022-08-19T13:41:26;15.43;;;13.05;;
27985;SDS011;15453;53.692;10.168;2022-08-19T13:43:51;16.27;;;13.27;;
27985;SDS011;15453;53.692;10.168;2022-08-19T13:46:17;15.95;;;12.52;;
27985;SDS011;15453;53.692;10.168;2022-08-19T13:48:42;13.93;;;10.90;;
27985;SDS011;15453;53.692;10.168;2022-08-19T13:51:08;14.30;;;11.93;;
27985;SDS011;15453;53.692;10.168;2022-08-19T13:53:36;14.43;;;11.90;;
27985;SDS011;15453;53.692;10.168;2022-08-19T13:56:08;11.43;;;10.18;;
27985;SDS011;15453;53.692;10.168;2022-08-19T13:58:37;15.50;;;10.75;;
27985;SDS011;15453;53.692;10.168;2022-08-19T14:01:03;12.38;;;10.43;;
27985;SDS011;15453;53.692;10.168;2022-08-19T14:03:30;12.48;;;10.38;;
27985;SDS011;15453;53.692;10.168;2022-08-19T14:05:56;10.80;;;9.13;;
27985;SDS011;15453;53.692;10.168;2022-08-19T14:08:21;10.98;;;9.70;;
27985;SDS011;15453;53.692;10.168;2022-08-19T14:10:47;11.18;;;8.98;;
27985;SDS011;15453;53.692;10.168;2022-08-19T14:13:18;12.75;;;10.30;;
27985;SDS011;15453;53.692;10.168;2022-08-19T14:15:45;11.23;;;9.02;;
27985;SDS011;15453;53.692;10.168;2022-08-19T14:18:11;12.35;;;9.90;;
27985;SDS011;15453;53.692;10.168;2022-08-19T14:20:36;11.20;;;8.35;;
27985;SDS011;15453;53.692;10.168;2022-08-19T14:23:02;11.52;;;8.88;;